»·PEaware :: CGCMV CYYC-CED5

CGCMV :: CYYC-CED5

FLIGHT INFORMATION

Flight Status: Arrived
Operator: Unknown
More flights by this operator :: More flights under this callsign
Pilot: Sherman V. (22519)
Aircraft: BEECH AIRCRAFT BARON
(BE58)
More flights by this aircraft type
Origin: CYYC Calgary Intl
Canada
Destination: CED5 Taber
Canada
More flights between these airports :: More routes between these airports
Route:
File this flight plan on PilotEdge
Remarks:
Altitude:
(Current/Filed)
11,000ft
Speed:
(Current/Filed)
160kts
Departed: 24-May-20 10:29 PM
Arrived: 24-May-20 11:15 PM
Distance/Time
Traveled:
105nm/0:46
Distance/Time
To Go:
Arrived

Flight Plot

Page will automatically refresh every two minutes.

Flight plan parsing failed; only flown route is shown


Map Options




Map Legend


Flown Route
Filed Route
Departure Airport
Arrival Airport
Navaid (VOR, NDB)
Fix

Horizontal Profiles

Position Reports

Time Latitude Longitude Heading Altitude Ground
Speed
24-May-20 22:16 51.099890 -114.014343 135 3545ft 0kts
24-May-20 22:17 51.099890 -114.014343 135 3545ft 0kts
24-May-20 22:18 51.099890 -114.014343 135 3545ft 0kts
24-May-20 22:19 51.099890 -114.014343 135 3545ft 0kts
24-May-20 22:20 51.099890 -114.014343 134 3545ft 0kts
24-May-20 22:21 51.099890 -114.014343 135 3545ft 0kts
24-May-20 22:22 51.099357 -114.013902 215 3546ft 10kts
24-May-20 22:23 51.099346 -114.014538 308 3545ft 0kts
24-May-20 22:24 51.099346 -114.014538 308 3545ft 0kts
24-May-20 22:25 51.100311 -114.016105 292 3542ft 3kts
24-May-20 22:26 51.096907 -114.019738 267 3538ft 0kts
24-May-20 22:27 51.096907 -114.019739 267 3538ft 0kts
24-May-20 22:28 51.099486 -114.021380 358 3538ft 69kts
24-May-20 22:29 51.128052 -114.022584 341 4759ft 105kts
24-May-20 22:30 51.138537 -113.993332 165 5930ft 127kts
24-May-20 22:31 51.105391 -113.981925 153 7263ft 121kts
24-May-20 22:32 51.078877 -113.948933 139 8450ft 121kts
24-May-20 22:33 51.058410 -113.949502 136 7824ft 119kts
24-May-20 22:34 51.056532 -113.946815 141 7679ft 125kts
24-May-20 22:35 51.034878 -113.906693 107 7725ft 118kts
24-May-20 22:36 51.013972 -113.855424 136 7821ft 147kts
24-May-20 22:37 50.985938 -113.813775 138 8460ft 131kts
24-May-20 22:38 50.959252 -113.775097 137 8995ft 131kts
24-May-20 22:39 50.931651 -113.735108 137 9753ft 140kts
24-May-20 22:40 50.903001 -113.693604 137 10731ft 138kts
24-May-20 22:41 50.871373 -113.647927 137 11006ft 169kts
24-May-20 22:42 50.835070 -113.595645 137 11000ft 180kts
24-May-20 22:43 50.797880 -113.542046 137 11000ft 182kts
24-May-20 22:44 50.760147 -113.487868 137 11000ft 183kts
24-May-20 22:45 50.722481 -113.433955 137 11000ft 183kts
24-May-20 22:46 50.684706 -113.380218 137 11000ft 183kts
24-May-20 22:47 50.646934 -113.326407 138 10999ft 183kts
24-May-20 22:48 50.609150 -113.272533 137 10999ft 183kts
24-May-20 22:49 50.571565 -113.219057 137 11004ft 181kts
24-May-20 22:50 50.534336 -113.166389 138 11013ft 179kts
24-May-20 22:51 50.497391 -113.114222 138 11021ft 179kts
24-May-20 22:52 50.460364 -113.062016 138 11026ft 179kts
24-May-20 22:53 50.423291 -113.009744 138 11027ft 179kts
24-May-20 22:54 50.386285 -112.957874 138 11001ft 179kts
24-May-20 22:55 50.349345 -112.906155 140 11000ft 177kts
24-May-20 22:56 50.312772 -112.855236 139 10999ft 175kts
24-May-20 22:57 50.276450 -112.804669 139 10999ft 173kts
24-May-20 22:58 50.240435 -112.754587 139 10999ft 173kts
24-May-20 22:59 50.204627 -112.704861 139 10999ft 173kts
24-May-20 23:00 50.168659 -112.654831 139 10999ft 173kts
24-May-20 23:01 50.132726 -112.605102 139 10999ft 173kts
24-May-20 23:02 50.095998 -112.554311 139 10390ft 179kts
24-May-20 23:03 50.059171 -112.503471 139 9531ft 175kts
24-May-20 23:04 50.022826 -112.453533 139 8694ft 174kts
24-May-20 23:05 49.986065 -112.403127 140 7773ft 177kts
24-May-20 23:06 49.949114 -112.352522 140 6867ft 177kts
24-May-20 23:07 49.912201 -112.302143 141 5983ft 176kts
24-May-20 23:08 49.875450 -112.252100 142 5102ft 170kts
24-May-20 23:09 49.843576 -112.208707 142 3937ft 144kts
24-May-20 23:10 49.817562 -112.170993 138 3439ft 113kts
24-May-20 23:11 49.817986 -112.124024 63 3433ft 127kts
24-May-20 23:12 49.843649 -112.124399 277 3442ft 94kts
24-May-20 23:13 49.833941 -112.157252 242 2928ft 79kts
24-May-20 23:14 49.826052 -112.183691 247 2648ft 0kts
24-May-20 23:15 49.826900 -112.180788 67 2647ft 14kts
24-May-20 23:16 49.826213 -112.177185 86 2643ft 10kts
24-May-20 23:17 49.826137 -112.176260 246 2642ft 0kts
24-May-20 23:18 49.826138 -112.176260 246 2642ft 0kts
24-May-20 23:19 49.826138 -112.176260 246 2642ft 0kts

Navigation Log

Ident Type
Flight plan parsing failed, navigation log unavailable